Time;durP1;ratioP1;P1;durP2;ratioP2;P2;SDS_P1;SDS_P2;PMS_P1;PMS_P2;Temp;Humidity;BMP_temperature;BMP_pressure;BME280_temperature;BME280_humidity;BME280_pressure;Samples;Min_cycle;Max_cycle;Signal;HPM_P1;HPM_P2
2022/04/12 00:00:56;;;;;;;;;;;6.10;97.70;;;;;;5034622;28;19919;-67
2022/04/12 00:03:22;;;;;;;;;;;6.00;97.90;;;;;;5037701;28;19913;-67
2022/04/12 00:05:47;;;;;;;;;;;6.00;97.90;;;;;;5037610;28;20058;-67
2022/04/12 00:08:13;;;;;;;;;;;6.00;97.90;;;;;;5037837;28;20335;-67
2022/04/12 00:10:39;;;;;;;;;;;6.00;97.80;;;;;;5033748;28;20392;-67
2022/04/12 00:13:04;;;;;;;;;;;6.10;97.90;;;;;;5031057;28;19917;-67
2022/04/12 00:15:30;;;;;;;;;;;6.00;97.80;;;;;;5034904;28;19913;-67
2022/04/12 00:20:39;;;;;;;;;;;6.00;97.70;;;;;;5036247;28;19927;-67
2022/04/12 00:23:05;;;;;;;;;;;6.00;97.70;;;;;;5035776;28;20293;-67
2022/04/12 00:25:30;;;;;;;;;;;6.00;97.70;;;;;;5037428;28;19974;-67
2022/04/12 00:27:57;;;;;;;;;;;6.00;97.60;;;;;;5037271;28;20011;-67
2022/04/12 00:30:23;;;;;;;;;;;6.00;97.60;;;;;;5035624;28;19948;-67
2022/04/12 00:32:52;;;;;;;;;;;6.00;97.60;;;;;;5035884;28;20276;-67
2022/04/12 00:35:18;;;;;;;;;;;6.00;97.60;;;;;;5037804;28;19923;-67
2022/04/12 00:37:44;;;;;;;;;;;5.90;97.70;;;;;;5034776;28;19995;-67
2022/04/12 00:40:10;;;;;;;;;;;5.90;97.70;;;;;;5035036;28;19967;-67
2022/04/12 00:42:36;;;;;;;;;;;5.90;97.70;;;;;;5037702;28;19916;-67
2022/04/12 00:45:02;;;;;;;;;;;5.90;97.70;;;;;;5037490;28;20401;-67
2022/04/12 00:47:27;;;;;;;;;;;5.80;97.70;;;;;;5034684;28;20013;-66
2022/04/12 00:49:53;;;;;;;;;;;5.80;97.60;;;;;;5035556;28;20269;-67
2022/04/12 00:52:18;;;;;;;;;;;5.80;97.60;;;;;;5035641;28;19913;-67
2022/04/12 00:54:44;;;;;;;;;;;5.90;97.50;;;;;;5037347;28;19992;-66
2022/04/12 00:57:10;;;;;;;;;;;5.90;97.40;;;;;;5035924;28;20015;-66
2022/04/12 00:59:36;;;;;;;;;;;5.90;97.40;;;;;;5037017;28;19988;-67
2022/04/12 01:02:03;;;;;;;;;;;5.90;97.30;;;;;;5036219;28;19916;-67
2022/04/12 01:04:28;;;;;;;;;;;5.80;97.40;;;;;;5036467;28;19920;-67
2022/04/12 01:06:54;;;;;;;;;;;5.80;97.50;;;;;;5033910;28;19921;-67
2022/04/12 01:09:21;;;;;;;;;;;5.70;97.50;;;;;;5033648;28;19913;-67
2022/04/12 01:11:48;;;;;;;;;;;5.70;97.70;;;;;;5033551;28;19917;-67
2022/04/12 01:14:14;;;;;;;;;;;5.70;97.80;;;;;;5037378;28;19924;-66
2022/04/12 01:16:40;;;;;;;;;;;5.60;97.70;;;;;;5036126;28;20359;-66
2022/04/12 01:19:05;;;;;;;;;;;5.70;97.80;;;;;;5036184;28;20009;-67
2022/04/12 01:21:32;;;;;;;;;;;5.70;97.80;;;;;;5033692;28;19924;-66
2022/04/12 01:23:57;;;;;;;;;;;5.60;97.80;;;;;;5034288;28;19913;-67
2022/04/12 01:26:23;;;;;;;;;;;5.70;97.80;;;;;;5036222;28;19925;-67
2022/04/12 01:28:48;;;;;;;;;;;5.70;97.90;;;;;;5038266;28;19917;-67
2022/04/12 01:31:13;;;;;;;;;;;5.70;97.60;;;;;;5033485;28;19921;-67
2022/04/12 01:33:39;;;;;;;;;;;5.70;97.80;;;;;;5037945;28;19920;-67
2022/04/12 01:36:04;;;;;;;;;;;5.60;97.80;;;;;;5035868;28;19917;-66
2022/04/12 01:38:30;;;;;;;;;;;5.60;97.80;;;;;;5036726;28;19959;-67
2022/04/12 01:40:55;;;;;;;;;;;5.70;97.80;;;;;;5035886;28;19919;-67
2022/04/12 01:43:21;;;;;;;;;;;5.60;97.80;;;;;;5035848;28;20007;-67
2022/04/12 01:45:46;;;;;;;;;;;5.70;97.80;;;;;;5035222;28;20374;-67
2022/04/12 01:48:12;;;;;;;;;;;5.70;97.80;;;;;;5036125;28;19921;-66
2022/04/12 01:50:37;;;;;;;;;;;5.70;97.80;;;;;;5033839;28;20012;-66
2022/04/12 01:53:03;;;;;;;;;;;5.60;97.80;;;;;;5035254;28;19920;-66
2022/04/12 01:55:28;;;;;;;;;;;5.60;97.80;;;;;;5035715;28;19913;-66
2022/04/12 01:57:54;;;;;;;;;;;5.60;97.80;;;;;;5036750;28;19917;-67
2022/04/12 02:00:19;;;;;;;;;;;5.60;97.80;;;;;;5034940;28;19920;-67
2022/04/12 02:02:44;;;;;;;;;;;5.60;97.80;;;;;;5034228;28;19916;-67
2022/04/12 02:05:10;;;;;;;;;;;5.60;97.70;;;;;;5035868;28;20267;-67
2022/04/12 02:07:35;;;;;;;;;;;5.60;97.80;;;;;;5035022;28;19917;-67
2022/04/12 02:10:01;;;;;;;;;;;5.60;97.80;;;;;;5040551;28;19927;-66
2022/04/12 02:12:26;;;;;;;;;;;5.70;97.70;;;;;;5039388;28;19912;-67
2022/04/12 02:14:52;;;;;;;;;;;5.70;97.70;;;;;;5040384;28;19921;-66
2022/04/12 02:17:18;;;;;;;;;;;5.70;97.50;;;;;;5039647;28;19912;-67
2022/04/12 02:19:43;;;;;;;;;;;5.70;97.50;;;;;;5039559;28;19917;-67
2022/04/12 02:22:09;;;;;;;;;;;5.70;97.20;;;;;;5039755;28;19920;-67
2022/04/12 02:24:34;;;;;;;;;;;5.70;96.90;;;;;;5039915;28;20003;-67
2022/04/12 02:26:59;;;;;;;;;;;5.70;96.90;;;;;;5039731;28;19917;-67
2022/04/12 02:29:25;;;;;;;;;;;5.70;97.00;;;;;;5038411;28;20333;-67
2022/04/12 02:31:50;;;;;;;;;;;5.80;96.70;;;;;;5038579;28;19913;-67
2022/04/12 02:34:16;;;;;;;;;;;5.80;96.60;;;;;;5038610;28;19916;-67
2022/04/12 02:36:43;;;;;;;;;;;5.80;96.60;;;;;;5040322;28;19952;-66
2022/04/12 02:39:08;;;;;;;;;;;5.80;96.60;;;;;;5039216;28;19917;-66
2022/04/12 02:41:36;;;;;;;;;;;5.80;96.40;;;;;;5039357;28;19924;-66
2022/04/12 02:44:01;;;;;;;;;;;5.80;96.30;;;;;;5038711;28;19966;-66
2022/04/12 02:46:27;;;;;;;;;;;5.90;96.40;;;;;;5037952;28;22093;-67
2022/04/12 02:48:52;;;;;;;;;;;5.90;96.20;;;;;;5037955;28;19920;-66
2022/04/12 02:51:18;;;;;;;;;;;5.90;96.30;;;;;;5038286;28;19917;-66
2022/04/12 02:53:43;;;;;;;;;;;5.90;96.30;;;;;;5038121;28;19970;-66
2022/04/12 02:56:09;;;;;;;;;;;5.90;96.30;;;;;;5038703;28;19956;-66
2022/04/12 02:58:34;;;;;;;;;;;5.90;96.50;;;;;;5038019;28;20027;-67
2022/04/12 03:00:59;;;;;;;;;;;5.90;96.60;;;;;;5037200;28;20267;-66
2022/04/12 03:03:25;;;;;;;;;;;5.90;96.50;;;;;;5037625;28;20278;-67
2022/04/12 03:05:50;;;;;;;;;;;5.90;96.40;;;;;;5037560;28;20353;-67
2022/04/12 03:08:16;;;;;;;;;;;6.00;96.40;;;;;;5035526;28;20074;-66
2022/04/12 03:10:42;;;;;;;;;;;6.00;96.30;;;;;;5037582;28;19987;-66
2022/04/12 03:13:07;;;;;;;;;;;6.10;96.10;;;;;;5037292;28;19913;-67
2022/04/12 03:15:32;;;;;;;;;;;6.10;96.00;;;;;;5039765;28;19931;-67
2022/04/12 03:17:58;;;;;;;;;;;6.10;95.90;;;;;;5036214;28;19917;-66
2022/04/12 03:20:24;;;;;;;;;;;6.10;95.70;;;;;;5038214;28;19921;-67
2022/04/12 03:22:49;;;;;;;;;;;6.20;95.80;;;;;;5037837;28;19946;-67
2022/04/12 03:25:14;;;;;;;;;;;6.20;95.80;;;;;;5038284;28;20381;-66
2022/04/12 03:27:40;;;;;;;;;;;6.10;95.90;;;;;;5037983;28;19921;-67
2022/04/12 03:30:06;;;;;;;;;;;6.10;95.80;;;;;;5037780;28;20081;-66
2022/04/12 03:32:31;;;;;;;;;;;6.10;96.00;;;;;;5037088;28;19967;-67
2022/04/12 03:34:56;;;;;;;;;;;6.10;96.10;;;;;;5038593;28;19975;-66
2022/04/12 03:37:22;;;;;;;;;;;6.10;96.20;;;;;;5036951;28;19921;-66
2022/04/12 03:39:50;;;;;;;;;;;6.10;96.20;;;;;;5039083;28;19936;-67
2022/04/12 03:42:18;;;;;;;;;;;6.00;96.40;;;;;;5038182;28;20281;-67
2022/04/12 03:44:43;;;;;;;;;;;6.00;96.30;;;;;;5037041;28;19909;-67
2022/04/12 03:47:09;;;;;;;;;;;6.00;96.40;;;;;;5036984;28;19917;-66
2022/04/12 03:49:34;;;;;;;;;;;6.00;96.40;;;;;;5036475;28;19921;-66
2022/04/12 03:52:00;;;;;;;;;;;5.90;96.50;;;;;;5037934;28;19960;-66
2022/04/12 03:54:25;;;;;;;;;;;5.90;96.70;;;;;;5037562;28;20476;-67
2022/04/12 03:56:51;;;;;;;;;;;5.90;96.60;;;;;;5036213;28;20409;-66
2022/04/12 03:59:16;;;;;;;;;;;5.90;96.60;;;;;;5035862;28;19920;-66
2022/04/12 04:01:42;;;;;;;;;;;5.90;96.60;;;;;;5035495;28;19999;-66
2022/04/12 04:04:07;;;;;;;;;;;6.00;96.70;;;;;;5037624;28;19916;-66
2022/04/12 04:06:33;;;;;;;;;;;6.00;96.60;;;;;;5035483;28;20017;-66
2022/04/12 04:08:58;;;;;;;;;;;6.00;96.50;;;;;;5037928;28;19919;-66
2022/04/12 04:11:23;;;;;;;;;;;6.10;96.50;;;;;;5036572;28;19917;-66
2022/04/12 04:13:49;;;;;;;;;;;6.10;96.40;;;;;;5038299;28;19920;-66
2022/04/12 04:16:14;;;;;;;;;;;6.10;96.40;;;;;;5034489;28;19920;-66
2022/04/12 04:18:40;;;;;;;;;;;6.20;96.30;;;;;;5035666;28;19917;-66
2022/04/12 04:21:05;;;;;;;;;;;6.20;96.20;;;;;;5033494;28;19914;-66
2022/04/12 04:23:31;;;;;;;;;;;6.30;96.10;;;;;;5027937;28;19921;-66
2022/04/12 04:25:56;;;;;;;;;;;6.30;95.90;;;;;;5037713;28;19923;-66
2022/04/12 04:28:21;;;;;;;;;;;6.30;95.90;;;;;;5035223;28;20925;-66
2022/04/12 04:30:50;;;;;;;;;;;6.40;95.70;;;;;;5034760;28;20285;-66
2022/04/12 04:33:17;;;;;;;;;;;6.40;95.70;;;;;;5030927;28;20000;-66
2022/04/12 04:35:42;;;;;;;;;;;6.50;95.50;;;;;;5038236;28;19913;-67
2022/04/12 04:38:08;;;;;;;;;;;6.50;95.60;;;;;;5035628;28;19935;-66
2022/04/12 04:40:33;;;;;;;;;;;6.50;95.60;;;;;;5035179;28;19924;-66
2022/04/12 04:42:59;;;;;;;;;;;6.50;95.60;;;;;;5037405;28;19917;-66
2022/04/12 04:45:24;;;;;;;;;;;6.50;95.70;;;;;;5036419;28;19921;-66
2022/04/12 04:47:57;;;;;;;;;;;6.60;95.70;;;;;;5036496;28;19921;-66
2022/04/12 04:50:23;;;;;;;;;;;6.60;95.80;;;;;;5035087;28;19920;-66
2022/04/12 04:52:49;;;;;;;;;;;6.60;95.70;;;;;;5037488;28;19920;-66
2022/04/12 04:55:15;;;;;;;;;;;6.70;95.70;;;;;;5030407;28;19921;-66
2022/04/12 04:57:41;;;;;;;;;;;6.70;95.60;;;;;;5033718;28;20277;-66
2022/04/12 05:00:07;;;;;;;;;;;6.90;95.40;;;;;;5033972;28;20435;-66
2022/04/12 05:02:34;;;;;;;;;;;7.20;95.00;;;;;;5033606;28;19923;-66
2022/04/12 05:04:59;;;;;;;;;;;7.40;94.50;;;;;;5036615;28;19920;-66
2022/04/12 05:07:25;;;;;;;;;;;7.50;94.40;;;;;;5032181;28;20289;-66
2022/04/12 05:09:51;;;;;;;;;;;7.50;94.10;;;;;;5036272;28;19920;-66
2022/04/12 05:12:17;;;;;;;;;;;7.50;94.20;;;;;;5031549;28;19921;-66
2022/04/12 05:14:42;;;;;;;;;;;7.40;94.20;;;;;;5033128;28;19951;-67
2022/04/12 05:17:07;;;;;;;;;;;7.40;94.40;;;;;;5034361;28;20016;-67
2022/04/12 05:19:33;;;;;;;;;;;7.40;94.50;;;;;;5036947;28;19923;-67
2022/04/12 05:21:58;;;;;;;;;;;7.30;94.80;;;;;;5033662;28;19913;-67
2022/04/12 05:24:24;;;;;;;;;;;7.20;94.90;;;;;;5033354;28;19923;-68
2022/04/12 05:26:50;;;;;;;;;;;7.20;94.90;;;;;;5032432;28;19917;-67
2022/04/12 05:29:35;;;;;;;;;;;7.20;95.10;;;;;;5032549;28;19913;-66
2022/04/12 05:32:00;;;;;;;;;;;7.10;95.20;;;;;;5031273;28;19916;-66
2022/04/12 05:34:25;;;;;;;;;;;7.10;95.30;;;;;;5036529;28;19913;-66
2022/04/12 05:36:51;;;;;;;;;;;7.00;95.50;;;;;;5036676;28;19909;-66
2022/04/12 05:39:16;;;;;;;;;;;7.00;95.80;;;;;;5037082;28;19913;-66
2022/04/12 05:41:42;;;;;;;;;;;7.00;95.70;;;;;;5037276;28;20372;-66
2022/04/12 05:44:07;;;;;;;;;;;7.00;95.70;;;;;;5037705;28;19916;-66
2022/04/12 05:46:33;;;;;;;;;;;7.00;95.60;;;;;;5042097;28;19916;-66
2022/04/12 05:48:58;;;;;;;;;;;7.10;95.70;;;;;;5041648;28;19921;-66
2022/04/12 05:51:24;;;;;;;;;;;7.10;95.80;;;;;;5041658;28;19913;-66
2022/04/12 05:53:49;;;;;;;;;;;7.10;95.60;;;;;;5041329;28;20162;-66
2022/04/12 05:56:14;;;;;;;;;;;7.20;95.70;;;;;;5041849;28;19913;-66
2022/04/12 05:58:40;;;;;;;;;;;7.20;95.60;;;;;;5041850;28;19913;-66
2022/04/12 06:01:06;;;;;;;;;;;7.20;95.80;;;;;;5041493;28;20380;-66
2022/04/12 06:03:31;;;;;;;;;;;7.30;95.80;;;;;;5041264;28;19920;-66
2022/04/12 06:05:57;;;;;;;;;;;7.40;95.60;;;;;;5041598;28;19925;-66
2022/04/12 06:08:22;;;;;;;;;;;7.50;95.60;;;;;;5038989;28;19913;-66
2022/04/12 06:10:48;;;;;;;;;;;7.60;95.20;;;;;;5035721;28;19970;-67
2022/04/12 06:13:13;;;;;;;;;;;7.70;95.20;;;;;;5039988;28;19995;-67
2022/04/12 06:15:39;;;;;;;;;;;7.70;95.10;;;;;;5039155;28;19917;-67
2022/04/12 06:18:04;;;;;;;;;;;7.80;94.90;;;;;;5034117;28;19920;-68
2022/04/12 06:20:30;;;;;;;;;;;7.90;94.60;;;;;;5035475;28;19918;-67
2022/04/12 06:22:55;;;;;;;;;;;8.00;94.50;;;;;;5035909;28;19917;-65
2022/04/12 06:25:20;;;;;;;;;;;8.10;94.10;;;;;;5029366;28;19920;-64
2022/04/12 06:27:50;;;;;;;;;;;8.10;94.00;;;;;;5035146;28;20259;-64
2022/04/12 06:30:17;;;;;;;;;;;8.20;94.20;;;;;;5029832;28;20015;-66
2022/04/12 06:32:43;;;;;;;;;;;8.30;93.70;;;;;;5037037;28;19917;-70
2022/04/12 06:35:09;;;;;;;;;;;8.40;93.80;;;;;;5037611;28;20393;-68
2022/04/12 06:37:35;;;;;;;;;;;8.40;93.80;;;;;;5037546;28;19929;-66
2022/04/12 06:40:00;;;;;;;;;;;8.50;93.90;;;;;;5036331;28;20419;-70
2022/04/12 06:42:26;;;;;;;;;;;8.50;93.50;;;;;;5033680;28;19971;-68
2022/04/12 06:44:51;;;;;;;;;;;8.60;93.10;;;;;;5038756;28;19913;-67
2022/04/12 06:47:17;;;;;;;;;;;8.70;93.30;;;;;;5036730;28;19975;-69
2022/04/12 06:49:44;;;;;;;;;;;8.80;93.00;;;;;;5037814;28;19913;-69
2022/04/12 06:52:09;;;;;;;;;;;8.80;93.00;;;;;;5040006;28;19909;-71
2022/04/12 06:54:35;;;;;;;;;;;8.90;92.90;;;;;;5037698;28;19982;-70
2022/04/12 06:57:00;;;;;;;;;;;9.00;92.90;;;;;;5038567;28;19959;-70
2022/04/12 06:59:26;;;;;;;;;;;9.10;92.40;;;;;;5038336;28;19947;-68
2022/04/12 07:01:51;;;;;;;;;;;9.10;92.10;;;;;;5039635;28;19967;-68
2022/04/12 07:04:19;;;;;;;;;;;9.10;92.10;;;;;;5037073;28;19920;-68
2022/04/12 07:09:44;;;;;;;;;;;9.20;92.10;;;;;;5040472;28;19971;-67
2022/04/12 07:15:21;;;;;;;;;;;9.30;91.70;;;;;;5038235;28;19923;-68
2022/04/12 07:17:46;;;;;;;;;;;9.40;91.60;;;;;;5038077;28;19943;-67
2022/04/12 07:20:12;;;;;;;;;;;9.50;91.90;;;;;;5036598;28;19917;-68
2022/04/12 07:22:37;;;;;;;;;;;9.50;91.70;;;;;;5036530;28;19917;-69
2022/04/12 07:25:03;;;;;;;;;;;9.70;91.30;;;;;;5037398;28;19920;-67
2022/04/12 07:27:32;;;;;;;;;;;9.80;91.40;;;;;;5039274;28;20361;-67
2022/04/12 07:29:58;;;;;;;;;;;10.00;91.10;;;;;;5039105;28;21462;-69
2022/04/12 07:32:23;;;;;;;;;;;10.10;90.80;;;;;;5039745;28;20433;-68
2022/04/12 07:34:48;;;;;;;;;;;10.10;91.00;;;;;;5038463;28;20384;-69
2022/04/12 07:37:14;;;;;;;;;;;10.20;90.60;;;;;;5035927;28;20392;-73
2022/04/12 07:39:39;;;;;;;;;;;10.30;90.60;;;;;;5037222;28;20015;-74
2022/04/12 07:42:05;;;;;;;;;;;10.30;90.60;;;;;;5034947;28;20525;-71
2022/04/12 07:44:30;;;;;;;;;;;10.30;90.60;;;;;;5036627;28;20313;-71
2022/04/12 07:46:56;;;;;;;;;;;10.40;90.80;;;;;;5036277;28;19948;-69
2022/04/12 07:49:21;;;;;;;;;;;10.50;90.90;;;;;;5037641;28;19925;-67
2022/04/12 07:51:47;;;;;;;;;;;10.60;91.00;;;;;;5036530;28;20007;-67
2022/04/12 07:54:12;;;;;;;;;;;10.70;90.70;;;;;;5036495;28;19913;-66
2022/04/12 07:56:39;;;;;;;;;;;10.80;90.40;;;;;;5038821;28;19917;-68
2022/04/12 07:59:06;;;;;;;;;;;10.80;90.20;;;;;;5037867;28;20371;-70
2022/04/12 08:01:32;;;;;;;;;;;10.90;90.40;;;;;;5015552;28;20004;-68
2022/04/12 08:03:57;;;;;;;;;;;11.10;90.60;;;;;;5036732;28;20015;-70
2022/04/12 08:06:22;;;;;;;;;;;11.20;90.10;;;;;;5034782;28;19925;-67
2022/04/12 08:08:48;;;;;;;;;;;11.30;89.50;;;;;;5036336;28;19924;-67
2022/04/12 08:11:15;;;;;;;;;;;11.50;88.10;;;;;;5035425;28;22235;-68
2022/04/12 08:13:42;;;;;;;;;;;11.60;87.50;;;;;;5034397;28;20008;-67
2022/04/12 08:16:09;;;;;;;;;;;11.60;87.00;;;;;;5033557;28;19979;-67
2022/04/12 08:18:34;;;;;;;;;;;11.80;86.40;;;;;;5036345;28;20012;-68
2022/04/12 08:20:59;;;;;;;;;;;11.80;85.30;;;;;;5035641;28;20070;-67
2022/04/12 08:23:25;;;;;;;;;;;11.90;85.40;;;;;;5036201;28;19967;-67
2022/04/12 08:25:51;;;;;;;;;;;12.00;83.50;;;;;;5035620;28;19928;-68
2022/04/12 08:28:16;;;;;;;;;;;12.00;83.20;;;;;;5036656;28;19921;-69
2022/04/12 08:30:42;;;;;;;;;;;12.00;82.90;;;;;;5035918;28;20012;-70
2022/04/12 08:33:07;;;;;;;;;;;12.10;84.10;;;;;;5034174;28;19921;-70
2022/04/12 08:35:33;;;;;;;;;;;12.20;81.50;;;;;;5037127;28;20285;-73
2022/04/12 08:37:58;;;;;;;;;;;12.30;80.10;;;;;;5036416;28;19960;-74
2022/04/12 08:40:24;;;;;;;;;;;12.40;79.90;;;;;;5031953;28;20557;-74
2022/04/12 08:42:49;;;;;;;;;;;12.50;82.20;;;;;;5033540;28;19924;-73
2022/04/12 08:45:15;;;;;;;;;;;12.60;78.60;;;;;;5035253;28;19913;-71
2022/04/12 08:47:41;;;;;;;;;;;12.60;79.30;;;;;;5034597;28;19920;-73
2022/04/12 08:50:07;;;;;;;;;;;12.70;79.00;;;;;;5034862;28;19916;-73
2022/04/12 08:52:33;;;;;;;;;;;12.80;78.10;;;;;;5037208;28;19916;-72
2022/04/12 08:54:58;;;;;;;;;;;12.80;78.90;;;;;;5035202;28;20097;-70
2022/04/12 08:57:24;;;;;;;;;;;12.90;77.60;;;;;;5033269;28;19944;-71
2022/04/12 08:59:49;;;;;;;;;;;12.90;77.10;;;;;;5034719;28;19974;-72
2022/04/12 09:02:15;;;;;;;;;;;13.00;77.30;;;;;;5033362;28;19920;-80
2022/04/12 09:04:40;;;;;;;;;;;13.10;77.90;;;;;;5033832;28;19917;-79
2022/04/12 09:07:09;;;;;;;;;;;13.30;79.50;;;;;;5035407;28;19921;-74
2022/04/12 09:09:37;;;;;;;;;;;13.40;79.30;;;;;;5034544;28;19917;-72
2022/04/12 09:12:06;;;;;;;;;;;13.50;77.80;;;;;;5034165;28;20273;-70
2022/04/12 09:14:36;;;;;;;;;;;13.60;76.40;;;;;;5034460;28;20316;-70
2022/04/12 09:17:02;;;;;;;;;;;13.70;73.40;;;;;;5033415;28;20267;-71
2022/04/12 09:19:38;;;;;;;;;;;13.80;72.60;;;;;;5036647;28;20332;-74
2022/04/12 09:22:14;;;;;;;;;;;13.90;73.20;;;;;;5038863;28;19917;-75
2022/04/12 09:24:44;;;;;;;;;;;14.10;70.00;;;;;;5035346;28;20349;-75
2022/04/12 09:27:10;;;;;;;;;;;14.20;68.90;;;;;;5039238;28;19924;-77
2022/04/12 09:29:37;;;;;;;;;;;14.30;67.20;;;;;;5038010;28;19913;-75
2022/04/12 09:32:03;;;;;;;;;;;14.20;67.00;;;;;;5037606;28;19983;-73
2022/04/12 09:34:28;;;;;;;;;;;14.30;66.80;;;;;;5038476;28;19917;-72
2022/04/12 09:36:54;;;;;;;;;;;14.30;68.40;;;;;;5035149;28;19916;-73
2022/04/12 09:39:19;;;;;;;;;;;14.30;68.80;;;;;;5037433;28;20293;-73
2022/04/12 09:41:48;;;;;;;;;;;14.40;69.30;;;;;;5040578;28;20254;-73
2022/04/12 09:44:17;;;;;;;;;;;14.50;66.50;;;;;;5038052;28;19917;-73
2022/04/12 09:46:43;;;;;;;;;;;14.60;67.60;;;;;;5040856;28;19913;-72
2022/04/12 09:49:08;;;;;;;;;;;14.70;66.70;;;;;;5039661;28;19971;-73
2022/04/12 09:51:37;;;;;;;;;;;14.90;66.70;;;;;;5038504;28;19928;-74
2022/04/12 09:54:03;;;;;;;;;;;15.00;64.60;;;;;;5037829;28;20456;-72
2022/04/12 09:56:30;;;;;;;;;;;15.00;64.60;;;;;;5038804;28;20340;-73
2022/04/12 09:58:56;;;;;;;;;;;15.00;65.60;;;;;;5037610;28;19913;-76
2022/04/12 10:01:22;;;;;;;;;;;14.90;65.00;;;;;;5036429;28;20404;-71
2022/04/12 10:03:49;;;;;;;;;;;14.90;66.00;;;;;;5038862;28;19917;-74
2022/04/12 10:06:16;;;;;;;;;;;14.90;66.40;;;;;;5036852;28;19925;-75
2022/04/12 10:08:42;;;;;;;;;;;15.00;62.70;;;;;;5036276;28;20472;-77
2022/04/12 10:11:08;;;;;;;;;;;15.00;62.30;;;;;;5035739;28;19955;-76
2022/04/12 10:13:33;;;;;;;;;;;15.20;64.40;;;;;;5039599;28;19917;-75
2022/04/12 10:15:59;;;;;;;;;;;15.30;61.00;;;;;;5036855;28;19913;-76
2022/04/12 10:18:25;;;;;;;;;;;15.40;61.30;;;;;;5035525;28;19917;-74
2022/04/12 10:20:51;;;;;;;;;;;15.50;59.10;;;;;;5035668;28;19913;-73
2022/04/12 10:23:18;;;;;;;;;;;15.40;59.60;;;;;;5036816;28;19912;-74
2022/04/12 10:25:46;;;;;;;;;;;15.40;58.70;;;;;;5035792;28;19917;-72
2022/04/12 10:28:12;;;;;;;;;;;15.40;58.50;;;;;;5035520;28;19967;-72
2022/04/12 10:30:38;;;;;;;;;;;15.40;58.20;;;;;;5038180;28;19952;-74
2022/04/12 10:33:08;;;;;;;;;;;15.50;56.60;;;;;;5038130;28;20502;-72
2022/04/12 10:35:42;;;;;;;;;;;15.60;58.10;;;;;;5035168;28;19917;-71
2022/04/12 10:38:13;;;;;;;;;;;15.70;57.20;;;;;;5036207;28;19917;-71
2022/04/12 10:40:42;;;;;;;;;;;15.90;56.20;;;;;;5034832;28;19979;-71
2022/04/12 10:43:10;;;;;;;;;;;16.00;55.60;;;;;;5039052;28;19916;-72
2022/04/12 10:45:35;;;;;;;;;;;16.00;55.80;;;;;;5036740;28;19963;-71
2022/04/12 10:48:01;;;;;;;;;;;16.10;56.90;;;;;;5034800;28;19956;-71
2022/04/12 10:50:27;;;;;;;;;;;16.20;56.40;;;;;;5035789;28;19913;-71
2022/04/12 10:52:52;;;;;;;;;;;16.30;53.90;;;;;;5038315;28;20444;-71
2022/04/12 10:55:23;;;;;;;;;;;16.30;53.00;;;;;;5039942;28;20390;-71
2022/04/12 10:57:50;;;;;;;;;;;16.30;54.20;;;;;;5036963;28;19913;-77
2022/04/12 11:00:19;;;;;;;;;;;16.30;53.30;;;;;;5040252;28;19962;-75
2022/04/12 11:02:54;;;;;;;;;;;16.40;55.50;;;;;;5038988;28;19924;-75
2022/04/12 11:05:28;;;;;;;;;;;16.50;53.80;;;;;;5037358;28;19916;-75
2022/04/12 11:07:54;;;;;;;;;;;16.60;52.30;;;;;;5037474;28;20411;-75
2022/04/12 11:10:20;;;;;;;;;;;16.70;53.20;;;;;;5036033;28;20401;-74
2022/04/12 11:12:47;;;;;;;;;;;16.90;52.50;;;;;;5037814;28;19912;-74
2022/04/12 11:15:19;;;;;;;;;;;16.90;53.00;;;;;;5037517;28;19924;-69
2022/04/12 11:17:45;;;;;;;;;;;17.00;51.90;;;;;;5032050;28;20472;-69
2022/04/12 11:20:19;;;;;;;;;;;17.00;52.40;;;;;;5035810;28;19913;-69
2022/04/12 11:22:54;;;;;;;;;;;17.10;51.50;;;;;;5036602;28;19917;-70
2022/04/12 11:25:21;;;;;;;;;;;17.10;51.10;;;;;;5036562;28;19933;-70
2022/04/12 11:27:47;;;;;;;;;;;17.20;51.40;;;;;;5034944;28;20317;-69
2022/04/12 11:30:12;;;;;;;;;;;17.30;52.20;;;;;;5034900;28;20957;-71
2022/04/12 11:32:38;;;;;;;;;;;17.40;50.30;;;;;;5037702;28;19912;-72
2022/04/12 11:35:03;;;;;;;;;;;17.40;49.20;;;;;;5035776;28;20015;-72
2022/04/12 11:37:30;;;;;;;;;;;17.30;50.20;;;;;;5038306;28;20358;-71
2022/04/12 11:39:55;;;;;;;;;;;17.30;50.50;;;;;;5038236;28;20344;-72
2022/04/12 11:42:21;;;;;;;;;;;17.40;50.80;;;;;;5036958;28;19918;-71
2022/04/12 11:44:53;;;;;;;;;;;17.50;49.80;;;;;;5037308;28;19970;-70
2022/04/12 11:47:18;;;;;;;;;;;17.50;49.10;;;;;;5036628;28;19920;-71
2022/04/12 11:49:44;;;;;;;;;;;17.60;49.20;;;;;;5035299;28;19916;-71
2022/04/12 11:52:10;;;;;;;;;;;17.70;50.70;;;;;;5038111;28;19913;-72
2022/04/12 11:54:36;;;;;;;;;;;17.70;48.70;;;;;;5034586;28;19913;-71
2022/04/12 11:57:08;;;;;;;;;;;17.90;49.10;;;;;;5035972;28;19917;-72
2022/04/12 11:59:35;;;;;;;;;;;17.90;49.00;;;;;;5036399;28;20448;-73
2022/04/12 12:02:02;;;;;;;;;;;18.00;47.90;;;;;;5036394;28;19977;-76
2022/04/12 12:04:30;;;;;;;;;;;18.10;46.00;;;;;;5033964;28;19917;-73
2022/04/12 12:07:06;;;;;;;;;;;18.20;45.30;;;;;;5038196;28;19913;-75
2022/04/12 12:09:32;;;;;;;;;;;18.20;46.10;;;;;;5035587;28;20012;-75
2022/04/12 12:11:59;;;;;;;;;;;18.20;45.60;;;;;;5037739;28;19913;-77
2022/04/12 12:14:27;;;;;;;;;;;18.30;45.20;;;;;;5035371;28;20545;-75
2022/04/12 12:17:09;;;;;;;;;;;18.30;45.40;;;;;;5034763;28;20227;-75
2022/04/12 12:19:38;;;;;;;;;;;18.20;45.30;;;;;;5035127;28;20392;-73
2022/04/12 12:22:13;;;;;;;;;;;18.20;45.70;;;;;;5035421;28;19963;-70
2022/04/12 12:24:52;;;;;;;;;;;18.30;44.20;;;;;;5036959;28;19928;-72
2022/04/12 12:27:31;;;;;;;;;;;18.30;45.10;;;;;;5032873;28;20016;-71
2022/04/12 12:30:00;;;;;;;;;;;18.20;44.40;;;;;;5035001;28;19913;-71
2022/04/12 12:32:29;;;;;;;;;;;18.20;45.40;;;;;;5034145;28;19960;-83
2022/04/12 12:35:00;;;;;;;;;;;18.30;44.80;;;;;;5035012;28;19925;-80
2022/04/12 12:37:25;;;;;;;;;;;18.30;44.90;;;;;;5036359;28;20381;-73
2022/04/12 12:39:50;;;;;;;;;;;18.40;43.90;;;;;;5035658;28;19931;-73
2022/04/12 12:42:16;;;;;;;;;;;18.50;44.60;;;;;;5036073;28;20004;-70
2022/04/12 12:44:41;;;;;;;;;;;18.60;43.20;;;;;;5036040;28;19937;-71
2022/04/12 12:47:09;;;;;;;;;;;18.50;43.60;;;;;;5035720;28;19924;-71
2022/04/12 12:49:38;;;;;;;;;;;18.50;43.10;;;;;;5035808;28;19917;-72
2022/04/12 12:52:06;;;;;;;;;;;18.40;44.20;;;;;;5031137;28;19917;-73
2022/04/12 12:54:31;;;;;;;;;;;18.30;43.10;;;;;;5034815;28;19970;-70
2022/04/12 12:56:57;;;;;;;;;;;18.40;45.00;;;;;;5036410;28;20285;-70
2022/04/12 12:59:32;;;;;;;;;;;18.50;43.10;;;;;;5034094;28;19917;-71
2022/04/12 13:01:58;;;;;;;;;;;18.40;42.90;;;;;;5035037;28;19913;-70
2022/04/12 13:04:31;;;;;;;;;;;18.40;43.80;;;;;;5031767;28;20505;-69
2022/04/12 13:07:03;;;;;;;;;;;18.50;44.10;;;;;;5036557;28;20051;-69
2022/04/12 13:09:29;;;;;;;;;;;18.70;43.80;;;;;;5036011;28;19916;-72
2022/04/12 13:11:54;;;;;;;;;;;18.80;42.80;;;;;;5035578;28;19913;-71
2022/04/12 13:14:20;;;;;;;;;;;18.90;42.90;;;;;;5036968;28;19917;-70
2022/04/12 13:16:45;;;;;;;;;;;18.90;43.10;;;;;;5032062;28;19917;-72
2022/04/12 13:19:11;;;;;;;;;;;18.90;42.80;;;;;;5035676;28;19967;-71
2022/04/12 13:21:36;;;;;;;;;;;19.00;42.70;;;;;;5034906;28;20005;-69
2022/04/12 13:24:02;;;;;;;;;;;18.90;43.20;;;;;;5036707;28;19915;-70
2022/04/12 13:26:27;;;;;;;;;;;18.80;42.90;;;;;;5035742;28;19920;-69
2022/04/12 13:28:52;;;;;;;;;;;18.70;43.00;;;;;;5034254;28;20369;-70
2022/04/12 13:31:18;;;;;;;;;;;18.70;43.60;;;;;;5034180;28;20082;-69
2022/04/12 13:33:43;;;;;;;;;;;18.70;43.50;;;;;;5036509;28;19913;-69
2022/04/12 13:36:09;;;;;;;;;;;18.80;42.60;;;;;;5035088;28;19960;-68
2022/04/12 13:38:34;;;;;;;;;;;18.80;41.90;;;;;;5035301;28;20462;-70
2022/04/12 13:41:00;;;;;;;;;;;18.80;42.10;;;;;;5033144;28;19917;-69
2022/04/12 13:43:25;;;;;;;;;;;18.80;41.40;;;;;;5035662;28;20293;-69
2022/04/12 13:45:53;;;;;;;;;;;18.80;41.90;;;;;;5035549;28;19940;-69
2022/04/12 13:48:18;;;;;;;;;;;18.90;42.70;;;;;;5036889;28;19917;-71
2022/04/12 13:50:43;;;;;;;;;;;18.90;43.10;;;;;;5033353;28;20336;-70
2022/04/12 13:53:09;;;;;;;;;;;19.00;43.10;;;;;;5035401;28;20438;-70
2022/04/12 13:55:35;;;;;;;;;;;19.00;41.10;;;;;;5035016;28;20373;-70
2022/04/12 13:58:00;;;;;;;;;;;18.90;41.00;;;;;;5036674;28;19913;-68
2022/04/12 14:00:26;;;;;;;;;;;18.90;41.10;;;;;;5032198;28;19913;-71
2022/04/12 14:02:51;;;;;;;;;;;18.80;41.90;;;;;;5036842;28;19964;-70
2022/04/12 14:05:17;;;;;;;;;;;18.80;41.80;;;;;;5036079;28;19987;-70
2022/04/12 14:07:42;;;;;;;;;;;18.80;42.10;;;;;;5039484;28;19932;-72
2022/04/12 14:10:08;;;;;;;;;;;18.90;42.90;;;;;;5038777;28;19986;-73
2022/04/12 14:12:34;;;;;;;;;;;19.00;42.40;;;;;;5039497;28;19995;-72
2022/04/12 14:14:59;;;;;;;;;;;19.10;41.60;;;;;;5037967;28;19917;-71
2022/04/12 14:17:25;;;;;;;;;;;19.10;42.10;;;;;;5038756;28;20400;-70
2022/04/12 14:19:50;;;;;;;;;;;19.00;42.10;;;;;;5038143;28;20393;-70
2022/04/12 14:22:15;;;;;;;;;;;19.00;41.70;;;;;;5035345;28;19913;-69
2022/04/12 14:24:41;;;;;;;;;;;19.00;41.40;;;;;;5040000;28;20413;-69
2022/04/12 14:27:07;;;;;;;;;;;19.10;42.50;;;;;;5035915;28;19967;-69